Time;durP1;ratioP1;P1;durP2;ratioP2;P2;SDS_P1;SDS_P2;PMS_P1;PMS_P2;Temp;Humidity;BMP_temperature;BMP_pressure;BME280_temperature;BME280_humidity;BME280_pressure;Samples;Min_cycle;Max_cycle;Signal;HPM_P1;HPM_P2
2020/12/25 00:00:00;;;;;;;1.60;1.50;;;2.20;99.90;;;;;;5034749;28;20683;-90
2020/12/25 00:02:26;;;;;;;1.50;1.40;;;2.20;99.90;;;;;;5025984;28;20646;-90
2020/12/25 00:04:54;;;;;;;1.60;1.50;;;2.20;99.90;;;;;;5033000;28;20673;-91
2020/12/25 00:07:26;;;;;;;1.73;1.63;;;2.20;99.90;;;;;;5037425;28;21265;-90
2020/12/25 00:09:53;;;;;;;2.53;2.33;;;2.20;99.90;;;;;;5031845;28;20675;-91
2020/12/25 00:12:19;;;;;;;1.70;1.60;;;2.50;99.90;;;;;;5029687;28;20632;-90
2020/12/25 00:14:46;;;;;;;1.43;1.33;;;2.40;99.90;;;;;;5034524;28;20635;-90
2020/12/25 00:17:13;;;;;;;2.17;2.07;;;2.20;99.90;;;;;;5028258;28;20698;-91
2020/12/25 00:19:44;;;;;;;2.73;2.53;;;2.20;99.90;;;;;;5030303;28;20666;-91
2020/12/25 00:22:11;;;;;;;2.33;2.13;;;2.20;99.90;;;;;;5036996;28;20642;-91
2020/12/25 00:24:44;;;;;;;2.10;2.00;;;2.20;99.90;;;;;;5036446;28;20584;-91
2020/12/25 00:27:11;;;;;;;2.30;2.20;;;2.20;99.90;;;;;;5034920;28;20614;-92
2020/12/25 00:29:39;;;;;;;3.03;2.83;;;2.20;99.90;;;;;;5027508;28;20678;-91
2020/12/25 00:32:05;;;;;;;2.33;2.13;;;2.30;99.90;;;;;;5042150;28;21004;-91
2020/12/25 00:34:33;;;;;;;2.43;2.33;;;2.20;99.90;;;;;;5031665;28;20642;-92
2020/12/25 00:36:59;;;;;;;2.40;2.30;;;2.30;99.90;;;;;;5042075;28;20641;-92
2020/12/25 00:39:26;;;;;;;2.80;2.60;;;2.30;99.90;;;;;;5035679;28;20619;-89
2020/12/25 00:41:53;;;;;;;2.50;2.40;;;2.40;99.90;;;;;;5033323;28;20631;-89
2020/12/25 00:44:24;;;;;;;2.50;2.37;;;2.30;99.90;;;;;;5037322;28;20639;-89
2020/12/25 00:46:50;;;;;;;2.70;2.50;;;2.30;99.90;;;;;;5027484;28;20601;-89
2020/12/25 00:49:17;;;;;;;2.77;2.57;;;2.30;99.90;;;;;;5035663;28;20666;-90
2020/12/25 00:51:47;;;;;;;2.40;2.30;;;2.30;99.90;;;;;;5036899;28;20646;-90
2020/12/25 00:54:13;;;;;;;2.50;2.33;;;2.40;99.90;;;;;;5027736;28;20624;-89
2020/12/25 00:56:40;;;;;;;2.47;2.37;;;2.40;99.90;;;;;;5034495;28;21237;-90
2020/12/25 00:59:13;;;;;;;1.60;1.50;;;2.40;99.90;;;;;;5026856;28;20633;-90
2020/12/25 01:01:42;;;;;;;1.90;1.80;;;2.30;99.90;;;;;;5033243;28;21193;-89
2020/12/25 01:04:09;;;;;;;1.60;1.50;;;2.30;99.90;;;;;;5030749;28;20620;-91
2020/12/25 01:06:36;;;;;;;1.83;1.73;;;2.30;99.90;;;;;;5027164;28;20662;-90
2020/12/25 01:09:06;;;;;;;2.37;2.17;;;2.30;99.90;;;;;;5027359;28;20667;-90
2020/12/25 01:11:34;;;;;;;3.17;2.97;;;2.30;99.90;;;;;;5033757;28;20661;-90
2020/12/25 01:14:00;;;;;;;2.20;2.10;;;2.30;99.90;;;;;;5032808;28;20714;-91
2020/12/25 01:16:28;;;;;;;1.70;1.60;;;2.40;99.90;;;;;;5048939;28;20603;-91
2020/12/25 01:18:54;;;;;;;1.70;1.60;;;2.50;99.90;;;;;;5039584;28;20635;-93
2020/12/25 01:21:21;;;;;;;2.23;2.13;;;2.50;99.90;;;;;;5040193;28;20984;-93
2020/12/25 01:23:48;;;;;;;2.60;2.40;;;2.60;99.90;;;;;;5049043;28;20639;-93
2020/12/25 01:26:16;;;;;;;2.30;2.10;;;2.40;99.90;;;;;;5062778;28;20623;-93
2020/12/25 01:28:43;;;;;;;2.47;2.27;;;2.40;99.90;;;;;;5054392;28;20679;-94
2020/12/25 01:31:16;;;;;;;2.30;2.20;;;2.40;99.90;;;;;;5061598;28;20655;-94
2020/12/25 01:33:45;;;;;;;3.00;2.80;;;2.40;99.90;;;;;;5056857;28;20632;-92
2020/12/25 01:36:20;;;;;;;3.37;3.17;;;2.40;99.90;;;;;;5071917;28;20607;-92
2020/12/25 01:38:48;;;;;;;2.33;2.23;;;2.40;99.90;;;;;;5064615;28;20626;-95
2020/12/25 01:41:25;;;;;;;2.93;2.73;;;2.30;99.90;;;;;;5065978;28;20643;-93
2020/12/25 01:44:00;;;;;;;2.20;2.10;;;2.30;99.90;;;;;;5058201;28;20618;-93
2020/12/25 01:46:29;;;;;;;2.60;2.40;;;2.30;99.90;;;;;;5059062;28;20615;-92
2020/12/25 01:49:12;;;;;;;2.40;2.23;;;2.30;99.90;;;;;;5053657;28;20790;-94
2020/12/25 01:51:59;;;;;;;2.53;2.33;;;2.40;99.90;;;;;;5038870;28;20721;-94
2020/12/25 01:54:28;;;;;;;1.97;1.87;;;2.40;99.90;;;;;;5046528;28;20631;-95
2020/12/25 01:56:56;;;;;;;1.90;1.80;;;2.40;99.90;;;;;;5040822;28;20630;-93
2020/12/25 01:59:23;;;;;;;2.30;2.20;;;2.40;99.90;;;;;;5053464;28;20693;-92
2020/12/25 02:01:50;;;;;;;2.43;2.30;;;2.40;99.90;;;;;;5044168;28;20635;-94
2020/12/25 02:04:17;;;;;;;2.20;2.10;;;2.50;99.90;;;;;;5026536;28;20643;-91
2020/12/25 02:06:44;;;;;;;2.80;2.60;;;2.50;99.90;;;;;;5052215;28;20709;-93
2020/12/25 02:09:14;;;;;;;2.17;2.07;;;2.50;99.90;;;;;;5053082;28;20666;-90
2020/12/25 02:11:41;;;;;;;3.03;2.73;;;2.50;99.90;;;;;;5045165;28;20653;-91
2020/12/25 02:14:09;;;;;;;2.83;2.67;;;2.50;99.90;;;;;;5044466;28;20700;-92
2020/12/25 02:16:39;;;;;;;4.20;3.90;;;2.50;99.90;;;;;;5038621;28;21058;-91
2020/12/25 02:19:06;;;;;;;3.33;3.13;;;2.50;99.90;;;;;;5048584;28;20652;-89
2020/12/25 02:21:34;;;;;;;4.03;3.73;;;2.60;99.90;;;;;;5055697;28;20663;-94
2020/12/25 02:24:02;;;;;;;4.00;3.70;;;2.60;99.90;;;;;;5049246;28;20714;-94
2020/12/25 02:26:29;;;;;;;4.90;4.60;;;2.60;99.90;;;;;;5062269;28;20833;-90
2020/12/25 02:28:59;;;;;;;5.57;5.13;;;2.70;99.90;;;;;;5041687;28;20662;-92
2020/12/25 02:31:29;;;;;;;6.00;5.40;;;2.70;99.90;;;;;;5057053;28;21287;-91
2020/12/25 02:34:05;;;;;;;6.40;5.87;;;2.80;99.90;;;;;;5033753;28;20632;-92
2020/12/25 02:36:34;;;;;;;6.30;5.80;;;2.80;99.90;;;;;;5038273;28;20603;-92
2020/12/25 02:39:00;;;;;;;6.90;6.40;;;2.80;99.90;;;;;;5032694;28;20743;-92
2020/12/25 02:41:28;;;;;;;7.17;6.57;;;2.80;99.90;;;;;;5035739;28;20669;-91
2020/12/25 02:44:01;;;;;;;8.57;7.93;;;2.90;99.90;;;;;;5037233;28;20631;-90
2020/12/25 02:46:27;;;;;;;8.30;6.47;;;2.90;99.90;;;;;;5048090;28;20630;-93
2020/12/25 02:48:55;;;;;;;8.03;7.17;;;2.90;99.90;;;;;;5038657;28;20669;-93
2020/12/25 02:51:24;;;;;;;10.03;9.03;;;2.90;99.90;;;;;;5048022;28;20681;-92
2020/12/25 02:53:56;;;;;;;8.70;7.83;;;3.00;99.90;;;;;;5054097;28;20655;-92
2020/12/25 02:56:23;;;;;;;12.90;7.93;;;3.00;99.90;;;;;;5039433;28;20639;-92
2020/12/25 02:58:51;;;;;;;9.57;8.63;;;3.00;99.90;;;;;;5046270;28;20635;-94
2020/12/25 03:01:26;;;;;;;9.90;8.90;;;3.00;99.90;;;;;;5044379;28;20792;-94
2020/12/25 03:03:52;;;;;;;10.67;8.40;;;3.00;99.90;;;;;;5062595;28;20736;-92
2020/12/25 03:06:19;;;;;;;7.97;7.33;;;3.00;99.90;;;;;;5062280;28;21413;-91
2020/12/25 03:09:03;;;;;;;10.83;7.93;;;3.00;99.90;;;;;;5046911;28;20679;-91
2020/12/25 03:11:30;;;;;;;9.27;8.20;;;3.00;99.90;;;;;;5036619;28;20671;-91
2020/12/25 03:13:56;;;;;;;9.60;8.60;;;3.00;99.90;;;;;;5042378;28;20635;-91
2020/12/25 03:16:23;;;;;;;9.73;8.60;;;3.10;99.90;;;;;;5054034;28;20659;-92
2020/12/25 03:18:50;;;;;;;8.77;8.07;;;3.10;99.90;;;;;;5053731;28;21297;-90
2020/12/25 03:21:19;;;;;;;10.43;9.53;;;3.10;99.90;;;;;;5050948;28;20655;-91
2020/12/25 03:23:49;;;;;;;9.70;8.70;;;3.20;99.90;;;;;;5051550;28;20964;-91
2020/12/25 03:26:18;;;;;;;10.53;9.50;;;3.20;99.90;;;;;;5053727;28;20721;-90
2020/12/25 03:28:45;;;;;;;9.67;8.87;;;3.20;99.90;;;;;;5043470;28;20665;-90
2020/12/25 03:31:11;;;;;;;8.93;8.23;;;3.20;99.90;;;;;;5065022;28;20690;-91
2020/12/25 03:33:43;;;;;;;9.20;8.30;;;3.20;99.90;;;;;;5055049;28;20634;-90
2020/12/25 03:36:16;;;;;;;9.43;8.63;;;3.10;99.90;;;;;;5063978;28;20643;-93
2020/12/25 03:38:43;;;;;;;9.83;8.67;;;3.20;99.90;;;;;;5044632;28;20663;-90
2020/12/25 03:41:10;;;;;;;8.70;7.90;;;3.20;99.90;;;;;;5050196;28;20731;-89
2020/12/25 03:43:44;;;;;;;7.77;7.17;;;3.20;99.90;;;;;;5057593;28;20626;-90
2020/12/25 03:46:10;;;;;;;8.57;7.87;;;3.20;99.90;;;;;;5053965;28;20647;-90
2020/12/25 03:48:39;;;;;;;8.03;7.43;;;3.30;99.90;;;;;;5052787;28;20685;-89
2020/12/25 03:51:06;;;;;;;8.80;8.00;;;3.30;99.90;;;;;;5044523;28;20743;-94
2020/12/25 03:53:32;;;;;;;9.80;8.80;;;3.30;99.90;;;;;;5058415;28;20621;-92
2020/12/25 03:56:00;;;;;;;10.27;9.07;;;3.20;99.90;;;;;;5052822;28;20622;-90
2020/12/25 03:58:26;;;;;;;9.47;8.50;;;3.20;99.90;;;;;;5047244;28;20642;-90
2020/12/25 04:01:00;;;;;;;10.67;9.10;;;3.20;99.90;;;;;;5041004;28;21062;-92
2020/12/25 04:03:26;;;;;;;9.23;8.40;;;3.20;99.90;;;;;;5042694;28;20702;-91
2020/12/25 04:05:56;;;;;;;9.67;8.87;;;3.20;99.90;;;;;;5039809;28;20794;-90
2020/12/25 04:08:22;;;;;;;10.50;9.60;;;3.20;99.90;;;;;;5034800;28;20654;-90
2020/12/25 04:10:53;;;;;;;9.53;8.80;;;3.20;99.90;;;;;;5046380;28;20674;-89
2020/12/25 04:13:19;;;;;;;9.77;8.97;;;3.10;99.90;;;;;;5038511;28;20669;-89
2020/12/25 04:15:54;;;;;;;9.23;8.43;;;3.20;99.90;;;;;;5029853;28;20722;-90
2020/12/25 04:18:22;;;;;;;10.27;9.37;;;3.20;99.90;;;;;;5023662;28;20634;-91
2020/12/25 04:20:48;;;;;;;10.10;9.20;;;3.20;99.90;;;;;;5033945;28;20753;-89
2020/12/25 04:23:15;;;;;;;8.80;8.00;;;3.20;99.90;;;;;;5031000;28;20603;-91
2020/12/25 04:25:43;;;;;;;8.77;7.90;;;3.10;99.90;;;;;;5039904;28;20691;-92
2020/12/25 04:28:10;;;;;;;8.77;7.87;;;3.20;99.90;;;;;;5032288;28;20635;-91
2020/12/25 04:30:37;;;;;;;9.77;8.87;;;3.20;99.90;;;;;;5036868;28;20658;-89
2020/12/25 04:33:03;;;;;;;10.40;9.40;;;3.20;99.90;;;;;;5039962;28;20630;-90
2020/12/25 04:35:35;;;;;;;8.40;7.70;;;3.30;99.90;;;;;;5035478;28;20657;-90
2020/12/25 04:38:01;;;;;;;8.77;8.10;;;3.20;99.90;;;;;;5036139;28;20622;-90
2020/12/25 04:40:30;;;;;;;8.60;7.90;;;3.20;99.90;;;;;;5041533;28;21430;-91
2020/12/25 04:43:01;;;;;;;8.77;7.93;;;3.20;99.90;;;;;;5030015;28;20632;-91
2020/12/25 04:45:28;;;;;;;9.30;8.50;;;3.10;99.90;;;;;;5037793;28;20639;-90
2020/12/25 04:47:59;;;;;;;8.93;8.23;;;3.00;99.90;;;;;;5036307;28;20630;-92
2020/12/25 04:50:25;;;;;;;10.03;9.23;;;3.10;99.90;;;;;;5041104;28;20669;-90
2020/12/25 04:52:53;;;;;;;10.27;9.30;;;3.20;99.90;;;;;;5033035;28;20626;-91
2020/12/25 04:55:20;;;;;;;8.03;7.43;;;3.20;99.90;;;;;;5035583;28;20614;-91
2020/12/25 04:57:47;;;;;;;9.20;8.30;;;3.10;99.90;;;;;;5036714;28;20628;-91
2020/12/25 05:00:22;;;;;;;9.63;8.83;;;3.20;99.90;;;;;;5038647;28;20663;-92
2020/12/25 05:02:51;;;;;;;8.70;7.90;;;3.30;99.90;;;;;;5040729;28;20745;-92
2020/12/25 05:05:25;;;;;;;8.37;7.47;;;3.20;99.90;;;;;;5041360;28;21184;-91
2020/12/25 05:07:53;;;;;;;8.60;7.93;;;3.10;99.90;;;;;;5050314;28;20646;-94
2020/12/25 05:10:20;;;;;;;7.73;7.13;;;3.10;99.90;;;;;;5043181;28;20769;-92
2020/12/25 05:12:49;;;;;;;7.77;7.17;;;3.10;99.90;;;;;;5037019;28;20654;-91
2020/12/25 05:15:18;;;;;;;8.27;7.67;;;3.10;99.90;;;;;;5042370;28;20631;-91
2020/12/25 05:17:46;;;;;;;7.60;7.00;;;3.10;99.90;;;;;;5040986;28;21388;-92
2020/12/25 05:20:13;;;;;;;8.60;7.90;;;3.20;99.90;;;;;;5043391;28;21048;-91
2020/12/25 05:22:40;;;;;;;8.90;8.20;;;3.10;99.90;;;;;;5034683;28;20623;-92
2020/12/25 05:25:14;;;;;;;8.40;7.80;;;3.20;99.90;;;;;;5046415;28;20638;-92
2020/12/25 05:27:45;;;;;;;9.20;8.40;;;3.10;99.90;;;;;;5036524;28;20807;-91
2020/12/25 05:30:15;;;;;;;7.93;7.33;;;3.00;99.90;;;;;;5038680;28;20678;-91
2020/12/25 05:32:44;;;;;;;9.37;8.67;;;3.00;99.90;;;;;;5035654;28;20722;-91
2020/12/25 05:35:14;;;;;;;9.23;8.40;;;3.00;99.90;;;;;;5038038;28;20647;-92
2020/12/25 05:37:42;;;;;;;8.80;8.13;;;3.00;99.90;;;;;;5040438;28;20971;-90
2020/12/25 05:40:09;;;;;;;9.67;8.87;;;3.10;99.90;;;;;;5047066;28;20997;-92
2020/12/25 05:42:46;;;;;;;8.60;8.00;;;3.10;99.90;;;;;;5041705;28;20641;-92
2020/12/25 05:45:18;;;;;;;9.77;9.00;;;3.10;99.90;;;;;;5035171;28;20639;-91
2020/12/25 05:47:48;;;;;;;8.33;7.63;;;3.20;99.90;;;;;;5046074;28;20630;-90
2020/12/25 05:50:19;;;;;;;9.60;8.70;;;3.20;99.90;;;;;;5035662;28;20721;-91
2020/12/25 05:52:47;;;;;;;10.27;9.37;;;3.00;99.90;;;;;;5041651;28;20644;-92
2020/12/25 05:55:18;;;;;;;9.07;8.37;;;3.00;99.90;;;;;;5037298;28;20697;-91
2020/12/25 05:57:51;;;;;;;10.73;9.80;;;3.10;99.90;;;;;;5040402;28;21026;-93
2020/12/25 06:00:18;;;;;;;9.60;8.90;;;3.10;99.90;;;;;;5040968;28;20650;-92
2020/12/25 06:02:51;;;;;;;10.47;9.60;;;3.10;99.90;;;;;;5039305;28;20795;-92
2020/12/25 06:05:20;;;;;;;10.37;9.47;;;3.10;99.90;;;;;;5048171;28;20658;-91
2020/12/25 06:07:54;;;;;;;10.53;9.70;;;3.10;99.90;;;;;;5039319;28;21133;-91
2020/12/25 06:10:22;;;;;;;10.70;9.80;;;3.20;99.90;;;;;;5040926;28;20722;-92
2020/12/25 06:12:50;;;;;;;11.10;10.00;;;3.20;99.90;;;;;;5039447;28;20650;-92
2020/12/25 06:15:26;;;;;;;10.83;9.83;;;3.30;99.90;;;;;;5044660;28;20722;-92
2020/12/25 06:18:10;;;;;;;8.40;7.80;;;3.20;99.90;;;;;;5046548;28;20632;-93
2020/12/25 06:20:40;;;;;;;9.40;8.60;;;3.10;99.90;;;;;;5037855;28;20717;-91
2020/12/25 06:23:10;;;;;;;10.03;9.20;;;3.30;99.90;;;;;;5034856;28;20617;-92
2020/12/25 06:25:39;;;;;;;10.53;9.63;;;3.20;99.90;;;;;;5040165;28;20708;-92
2020/12/25 06:28:07;;;;;;;10.03;9.23;;;3.10;99.90;;;;;;5035644;28;20622;-91
2020/12/25 06:30:34;;;;;;;10.57;9.67;;;3.10;99.90;;;;;;5052565;28;20664;-91
2020/12/25 06:33:01;;;;;;;9.70;8.90;;;3.10;99.90;;;;;;5039731;28;20997;-92
2020/12/25 06:35:29;;;;;;;10.07;9.17;;;3.10;99.90;;;;;;5037905;28;20634;-91
2020/12/25 06:37:56;;;;;;;10.57;9.60;;;3.10;99.90;;;;;;5029407;28;20640;-91
2020/12/25 06:40:25;;;;;;;11.13;10.00;;;3.10;99.90;;;;;;5047819;28;21279;-90
2020/12/25 06:42:59;;;;;;;10.93;10.07;;;3.10;99.90;;;;;;5030144;28;20672;-90
2020/12/25 06:45:32;;;;;;;11.60;10.50;;;3.20;99.90;;;;;;5037171;28;20637;-90
2020/12/25 06:48:16;;;;;;;10.90;9.80;;;3.10;99.90;;;;;;5035161;28;21250;-90
2020/12/25 06:50:45;;;;;;;10.20;9.33;;;3.10;99.90;;;;;;5031520;28;20671;-90
2020/12/25 06:53:37;;;;;;;10.73;9.90;;;3.10;99.90;;;;;;5039306;28;20684;-91
2020/12/25 06:56:15;;;;;;;11.37;10.27;;;3.20;99.90;;;;;;5041554;28;21433;-90
2020/12/25 06:58:44;;;;;;;10.30;9.50;;;3.10;99.90;;;;;;5034245;28;20637;-90
2020/12/25 07:01:13;;;;;;;9.70;8.90;;;3.10;99.90;;;;;;5033569;28;20671;-90
2020/12/25 07:03:40;;;;;;;10.20;9.40;;;3.10;99.90;;;;;;5033200;28;21141;-89
2020/12/25 07:06:15;;;;;;;9.57;8.87;;;3.10;99.90;;;;;;5032151;28;20631;-89
2020/12/25 07:08:51;;;;;;;10.47;9.60;;;3.00;99.90;;;;;;5030456;28;21216;-89
2020/12/25 07:11:24;;;;;;;10.30;9.40;;;3.00;99.90;;;;;;5039329;28;20658;-90
2020/12/25 07:13:50;;;;;;;10.27;9.40;;;3.00;99.90;;;;;;5035312;28;20754;-90
2020/12/25 07:16:21;;;;;;;9.77;8.90;;;3.00;99.90;;;;;;5038158;28;20631;-92
2020/12/25 07:18:52;;;;;;;10.53;9.70;;;2.90;99.90;;;;;;5035536;28;20634;-92
2020/12/25 07:21:18;;;;;;;9.13;8.40;;;2.80;99.90;;;;;;5033960;28;21068;-91
2020/12/25 07:23:46;;;;;;;11.20;10.30;;;2.90;99.90;;;;;;5041147;28;20624;-91
2020/12/25 07:26:14;;;;;;;11.40;10.40;;;2.80;99.90;;;;;;5030695;28;20631;-91
2020/12/25 07:28:47;;;;;;;9.77;8.90;;;2.80;99.90;;;;;;5032927;28;20991;-89
2020/12/25 07:31:14;;;;;;;9.87;9.07;;;2.70;99.90;;;;;;5042930;28;20666;-90
2020/12/25 07:33:41;;;;;;;10.17;9.30;;;2.70;99.90;;;;;;5039933;28;20642;-91
2020/12/25 07:36:13;;;;;;;8.93;8.23;;;2.80;99.90;;;;;;5041202;28;21162;-92
2020/12/25 07:38:39;;;;;;;8.60;7.87;;;2.70;99.90;;;;;;5033493;28;20641;-91
2020/12/25 07:41:06;;;;;;;10.70;9.40;;;2.70;99.90;;;;;;5040076;28;20717;-91
2020/12/25 07:43:32;;;;;;;9.50;8.80;;;2.70;99.90;;;;;;5045551;28;20637;-91
2020/12/25 07:45:59;;;;;;;9.93;9.00;;;2.70;99.90;;;;;;5044954;28;20682;-91
2020/12/25 07:48:27;;;;;;;10.67;9.77;;;2.70;99.90;;;;;;5042501;28;20680;-91
2020/12/25 07:50:56;;;;;;;11.00;10.10;;;2.80;99.90;;;;;;5036358;28;20671;-92
2020/12/25 07:53:25;;;;;;;10.83;9.73;;;2.90;99.90;;;;;;5044968;28;20696;-94
2020/12/25 07:55:53;;;;;;;12.70;11.60;;;2.90;99.90;;;;;;5046308;28;20677;-93
2020/12/25 07:58:21;;;;;;;12.67;11.43;;;2.80;99.90;;;;;;5040710;28;21292;-93
2020/12/25 08:00:48;;;;;;;12.30;11.20;;;3.00;99.90;;;;;;5036216;28;20662;-91
2020/12/25 08:03:14;;;;;;;11.60;10.40;;;2.90;99.90;;;;;;5042821;28;20622;-92
2020/12/25 08:05:40;;;;;;;11.40;10.40;;;3.10;99.90;;;;;;5036955;28;20653;-91
2020/12/25 08:08:15;;;;;;;12.13;11.13;;;3.10;99.90;;;;;;5033330;28;20631;-90
2020/12/25 08:10:42;;;;;;;12.97;11.67;;;3.10;99.90;;;;;;5031956;28;20689;-90
2020/12/25 08:13:09;;;;;;;11.30;10.30;;;3.00;99.90;;;;;;5026163;28;20678;-90
2020/12/25 08:15:41;;;;;;;11.73;10.73;;;3.00;99.90;;;;;;5039732;28;20607;-90
2020/12/25 08:18:09;;;;;;;11.10;10.10;;;3.00;99.90;;;;;;5029699;28;20705;-91
2020/12/25 08:20:35;;;;;;;10.40;9.60;;;3.10;99.90;;;;;;5035131;28;20647;-91
2020/12/25 08:23:04;;;;;;;11.40;10.40;;;3.10;99.90;;;;;;5024966;28;20639;-88
2020/12/25 08:25:32;;;;;;;10.60;9.70;;;3.00;99.90;;;;;;5030675;28;20654;-89
2020/12/25 08:27:59;;;;;;;10.70;9.80;;;3.10;99.90;;;;;;5036234;28;20616;-88
2020/12/25 08:30:27;;;;;;;10.93;9.93;;;3.10;99.90;;;;;;5033161;28;20686;-88
2020/12/25 08:32:58;;;;;;;10.87;9.97;;;3.00;99.90;;;;;;5026699;28;20634;-88
2020/12/25 08:35:27;;;;;;;10.70;9.73;;;3.00;99.90;;;;;;5038076;28;20627;-88
2020/12/25 08:37:55;;;;;;;11.90;10.90;;;3.10;99.90;;;;;;5032485;28;21265;-88
2020/12/25 08:40:22;;;;;;;11.80;10.70;;;3.10;99.90;;;;;;5028879;28;21256;-88
2020/12/25 08:42:52;;;;;;;14.90;13.60;;;3.10;99.90;;;;;;5027965;28;20632;-88
2020/12/25 08:45:20;;;;;;;12.47;11.47;;;3.10;99.90;;;;;;5034365;28;20688;-88
2020/12/25 08:48:11;;;;;;;11.70;10.70;;;3.20;99.90;;;;;;5040762;28;20658;-89
2020/12/25 08:50:39;;;;;;;11.10;10.20;;;3.10;99.90;;;;;;5035050;28;20666;-90
2020/12/25 08:53:20;;;;;;;12.07;11.03;;;3.10;99.90;;;;;;5032531;28;20983;-89
2020/12/25 08:55:49;;;;;;;10.07;9.20;;;3.00;99.90;;;;;;5031346;28;20634;-89
2020/12/25 08:58:20;;;;;;;9.97;9.13;;;3.10;99.90;;;;;;5039936;28;20626;-87
2020/12/25 09:00:58;;;;;;;10.73;9.83;;;3.00;99.90;;;;;;5028306;28;20637;-87
2020/12/25 09:03:37;;;;;;;11.43;10.13;;;3.00;99.90;;;;;;5039292;28;20643;-88
2020/12/25 09:06:03;;;;;;;11.33;10.33;;;3.00;99.90;;;;;;5036017;28;20627;-87
2020/12/25 09:08:30;;;;;;;13.43;12.23;;;3.00;99.90;;;;;;5039637;28;20633;-87
2020/12/25 09:10:56;;;;;;;12.77;11.63;;;3.10;99.90;;;;;;5038805;28;21096;-88
2020/12/25 09:13:23;;;;;;;13.63;12.53;;;3.30;99.90;;;;;;5038464;28;20666;-87
2020/12/25 09:15:50;;;;;;;15.77;14.37;;;3.30;99.90;;;;;;5043373;28;20627;-85
2020/12/25 09:18:16;;;;;;;14.90;13.47;;;3.30;99.90;;;;;;5042318;28;20615;-87
2020/12/25 09:20:43;;;;;;;15.20;13.83;;;3.40;99.90;;;;;;5036472;28;20693;-87
2020/12/25 09:23:09;;;;;;;14.10;12.90;;;3.40;99.90;;;;;;5027447;28;20651;-87
2020/12/25 09:25:37;;;;;;;15.20;13.80;;;3.40;99.90;;;;;;5036252;28;20618;-88
2020/12/25 09:28:03;;;;;;;16.50;15.00;;;3.50;99.90;;;;;;5034112;28;20615;-88
2020/12/25 09:30:33;;;;;;;16.20;14.70;;;3.60;99.90;;;;;;5031824;28;21036;-87
2020/12/25 09:33:00;;;;;;;16.00;14.60;;;3.70;99.90;;;;;;5023843;28;20632;-87
2020/12/25 09:35:27;;;;;;;15.83;14.33;;;3.70;99.90;;;;;;5032282;28;20715;-87
2020/12/25 09:37:53;;;;;;;16.00;14.50;;;3.80;99.90;;;;;;5023297;28;20655;-88
2020/12/25 09:40:21;;;;;;;16.07;14.67;;;3.80;99.90;;;;;;5036171;28;20640;-88
2020/12/25 09:42:47;;;;;;;14.53;13.30;;;3.80;99.90;;;;;;5026541;28;20663;-88
2020/12/25 09:45:13;;;;;;;14.87;13.60;;;3.80;99.90;;;;;;5042442;28;20675;-87
2020/12/25 09:47:40;;;;;;;14.33;13.13;;;3.70;99.90;;;;;;5032444;28;20645;-88
2020/12/25 09:50:08;;;;;;;14.33;13.03;;;3.70;99.90;;;;;;5033536;28;20659;-88
2020/12/25 09:52:34;;;;;;;14.90;13.37;;;3.70;99.90;;;;;;5031354;28;20661;-87
2020/12/25 09:55:01;;;;;;;14.80;13.47;;;3.70;99.90;;;;;;5041434;28;20654;-87
2020/12/25 09:57:27;;;;;;;13.80;12.60;;;3.80;99.90;;;;;;5029813;28;20634;-88
2020/12/25 09:59:55;;;;;;;13.73;12.50;;;3.80;99.90;;;;;;5038662;28;20631;-87
2020/12/25 10:02:21;;;;;;;12.60;11.30;;;3.80;99.90;;;;;;5039881;28;20618;-87
2020/12/25 10:04:48;;;;;;;12.43;11.23;;;3.80;99.90;;;;;;5034281;28;20644;-86
2020/12/25 10:07:15;;;;;;;13.20;11.93;;;4.00;99.90;;;;;;5041612;28;20613;-86
2020/12/25 10:09:41;;;;;;;13.57;12.20;;;4.00;99.90;;;;;;5040658;28;20695;-87
2020/12/25 10:12:07;;;;;;;14.20;12.90;;;4.00;99.90;;;;;;5033855;28;20637;-88
2020/12/25 10:14:34;;;;;;;12.47;11.37;;;4.10;99.90;;;;;;5033919;28;20713;-87
2020/12/25 10:17:00;;;;;;;12.43;11.07;;;4.00;99.90;;;;;;5032625;28;20704;-87
2020/12/25 10:19:26;;;;;;;12.67;11.50;;;4.00;99.90;;;;;;5036429;28;20625;-88
2020/12/25 10:21:54;;;;;;;13.70;12.50;;;4.10;99.90;;;;;;5031037;28;20616;-88
2020/12/25 10:24:20;;;;;;;11.70;10.70;;;4.10;99.90;;;;;;5025891;28;20655;-88
2020/12/25 10:26:51;;;;;;;13.73;10.60;;;4.10;99.90;;;;;;5032436;28;20718;-88
2020/12/25 10:29:18;;;;;;;11.40;10.40;;;4.10;99.90;;;;;;5032352;28;21303;-88
2020/12/25 10:31:47;;;;;;;10.37;9.37;;;4.10;99.90;;;;;;5033121;28;21025;-88
2020/12/25 10:34:17;;;;;;;10.97;10.00;;;4.20;99.90;;;;;;5033216;28;20654;-87
2020/12/25 10:36:43;;;;;;;9.93;9.00;;;4.30;99.90;;;;;;5033373;28;20690;-87
2020/12/25 10:39:11;;;;;;;10.30;9.10;;;4.30;99.90;;;;;;5035754;28;21531;-88
2020/12/25 10:41:37;;;;;;;9.57;8.67;;;4.20;99.90;;;;;;5036393;28;21079;-88
2020/12/25 10:44:04;;;;;;;9.90;9.03;;;4.40;99.90;;;;;;5033977;28;20660;-88
2020/12/25 10:46:32;;;;;;;9.30;8.50;;;4.40;99.90;;;;;;5035922;28;20624;-89
2020/12/25 10:48:59;;;;;;;10.67;8.80;;;4.40;99.90;;;;;;5036337;28;20670;-88
2020/12/25 10:51:26;;;;;;;9.63;8.73;;;4.40;99.90;;;;;;5039011;28;20642;-88
2020/12/25 10:53:54;;;;;;;10.40;8.77;;;4.30;99.90;;;;;;5033045;28;20731;-88
2020/12/25 10:56:22;;;;;;;9.33;8.53;;;4.20;99.90;;;;;;5018903;28;20631;-88
2020/12/25 10:58:49;;;;;;;9.90;9.00;;;4.20;99.90;;;;;;5042113;28;21044;-88
2020/12/25 11:01:24;;;;;;;10.23;9.30;;;4.20;99.90;;;;;;5037107;28;20640;-90
2020/12/25 11:03:56;;;;;;;9.37;8.47;;;4.20;99.90;;;;;;5031020;28;20655;-88
2020/12/25 11:06:30;;;;;;;9.43;8.63;;;4.30;99.90;;;;;;5029520;28;20635;-88
2020/12/25 11:08:56;;;;;;;8.30;7.60;;;4.20;99.90;;;;;;5035232;28;21222;-87
2020/12/25 11:11:24;;;;;;;8.17;7.47;;;4.30;99.90;;;;;;5030083;28;20627;-86
2020/12/25 11:13:50;;;;;;;9.00;8.30;;;4.20;99.90;;;;;;5042441;28;20686;-87
2020/12/25 11:16:23;;;;;;;9.10;8.30;;;4.30;99.90;;;;;;5028101;28;21522;-87
2020/12/25 11:18:50;;;;;;;8.70;8.00;;;4.30;99.90;;;;;;5035058;28;20665;-87
2020/12/25 11:21:20;;;;;;;9.03;8.13;;;4.30;99.90;;;;;;5031507;28;20667;-89
2020/12/25 11:23:46;;;;;;;9.00;8.10;;;4.30;99.90;;;;;;5038643;28;21161;-87
2020/12/25 11:26:20;;;;;;;9.40;8.60;;;4.40;99.90;;;;;;5045257;28;20744;-88
2020/12/25 11:28:48;;;;;;;9.50;7.40;;;4.40;99.90;;;;;;5040510;28;20608;-88
2020/12/25 11:31:15;;;;;;;8.13;7.43;;;4.50;99.90;;;;;;5043294;28;20634;-86
2020/12/25 11:33:42;;;;;;;7.80;7.10;;;4.50;99.90;;;;;;5040825;28;21398;-86
2020/12/25 11:36:12;;;;;;;8.23;7.53;;;4.30;99.90;;;;;;5035391;28;20688;-86
2020/12/25 11:38:39;;;;;;;7.77;6.53;;;4.20;99.90;;;;;;5041135;28;20643;-88
2020/12/25 11:41:07;;;;;;;7.80;7.13;;;4.20;99.90;;;;;;5041007;28;20638;-88
2020/12/25 11:43:34;;;;;;;8.40;7.60;;;4.10;99.90;;;;;;5035140;28;20632;-88
2020/12/25 11:46:03;;;;;;;8.10;7.40;;;4.20;99.90;;;;;;5035604;28;20641;-87
2020/12/25 11:48:30;;;;;;;11.40;9.53;;;4.10;99.90;;;;;;5039800;28;20618;-87
2020/12/25 11:50:57;;;;;;;9.80;8.90;;;4.00;99.90;;;;;;5036007;28;20676;-87
2020/12/25 11:53:26;;;;;;;8.80;8.00;;;4.10;99.90;;;;;;5031961;28;20741;-85
2020/12/25 11:55:52;;;;;;;8.30;7.60;;;4.10;99.90;;;;;;5026219;28;20638;-87
2020/12/25 11:58:19;;;;;;;7.83;7.07;;;4.00;99.90;;;;;;5029702;28;20640;-86
2020/12/25 12:00:45;;;;;;;8.03;7.20;;;3.90;99.90;;;;;;5030931;28;20615;-87
2020/12/25 12:03:12;;;;;;;9.03;8.03;;;3.90;99.90;;;;;;5043412;28;20646;-86
2020/12/25 12:05:41;;;;;;;7.67;6.83;;;4.00;99.90;;;;;;5044701;28;20638;-86
2020/12/25 12:08:07;;;;;;;7.13;6.43;;;3.90;99.90;;;;;;5045541;28;21069;-85
2020/12/25 12:10:33;;;;;;;8.43;7.57;;;3.70;99.90;;;;;;5043124;28;20668;-87
2020/12/25 12:13:00;;;;;;;8.07;7.43;;;3.90;99.90;;;;;;5033074;28;20648;-86
2020/12/25 12:15:28;;;;;;;9.03;8.13;;;3.80;99.90;;;;;;5033279;28;20654;-87
2020/12/25 12:17:55;;;;;;;8.23;7.57;;;3.90;99.90;;;;;;5026270;28;20663;-87
2020/12/25 12:20:22;;;;;;;9.00;7.33;;;3.90;99.90;;;;;;5032025;28;20714;-87
2020/12/25 12:22:49;;;;;;;8.20;7.40;;;3.70;99.90;;;;;;5030880;28;20627;-86
2020/12/25 12:25:15;;;;;;;8.40;7.60;;;3.70;99.90;;;;;;5027670;28;20917;-87
2020/12/25 12:27:42;;;;;;;6.93;6.37;;;4.10;99.90;;;;;;5028480;28;20633;-86
2020/12/25 12:30:08;;;;;;;7.90;7.20;;;4.00;99.90;;;;;;5030035;28;20671;-87
2020/12/25 12:32:35;;;;;;;7.17;6.60;;;3.90;99.90;;;;;;5025145;28;21154;-87
2020/12/25 12:35:01;;;;;;;7.80;7.10;;;3.90;99.90;;;;;;5031696;28;20692;-87
2020/12/25 12:40:10;;;;;;;7.00;6.40;;;3.60;99.90;;;;;;5028463;28;20628;-87
2020/12/25 12:42:36;;;;;;;6.60;5.70;;;3.50;99.90;;;;;;5035863;28;20631;-87
2020/12/25 12:45:03;;;;;;;7.07;6.47;;;3.40;99.90;;;;;;5032467;28;20678;-87
2020/12/25 12:47:30;;;;;;;6.60;5.60;;;3.40;99.90;;;;;;5029119;28;20658;-87
2020/12/25 12:49:56;;;;;;;6.93;5.43;;;3.30;99.90;;;;;;5029605;28;20793;-87
2020/12/25 12:52:23;;;;;;;6.67;6.07;;;3.30;99.90;;;;;;5032449;28;20640;-87
2020/12/25 12:54:50;;;;;;;7.20;6.60;;;3.40;99.90;;;;;;5025421;28;20641;-86
2020/12/25 12:57:23;;;;;;;7.30;6.60;;;3.40;99.90;;;;;;5032905;28;20681;-86
2020/12/25 12:59:50;;;;;;;7.50;6.17;;;3.50;99.90;;;;;;5031043;28;20612;-86